Current | Forecast
Updated: 6:56 PM JST on October 19, 2017
Observed at Okinawa, Japan
Temperature 80°F
Humidity 82%
Dew Point 74°F
Wind NE at 10 mph
Pressure 29.78 in (Rising)
Conditions Overcast
Visibility 10.0 miles
UV 0 out of 16
Clouds Overcast (OVC) : 9000 ft
Yesterday's Maximum 86°F
Yesterday's Minimum 77°F approx.
Yesterday's Cooling Degree Days 17 approx.
Sunrise6:29 AM JST
Sunset5:57 PM JST
Moon Rise5:43 AM JST
Moon Set5:52 PM JST
Moon PhaseMoon Phase
Waning Crescent
Raw METARMETAR RODN 190956Z AUTO 05009KT 10SM OVC090 27/23 A2976 RMK AO2 SLP083 T02660234


Monday
. High: 77° F.
Tuesday
. High: 75° F.
Wednesday
. High: 73° F.
Thursday
. High: 75° F.
Friday
. High: 77° F.
Saturday
. High: 77° F.
Sunday
. High: 77° F.
Monday
. High: 79° F.

Units: English | Metric

Find the Weather for any City, State or Zipcode, or Country:

U.S. State List | Severe Weather | Tropical Storms | Ski Conditions
United States | Canada | Central America | South America | Asia | Europe | Australia | Africa | Islands

Weather Underground

© Copyright 2017
The Weather Company, LLC